Warners, New York
Current Conditions -  °F | °C
As of 3:54 AM on Sunday 26 Oct 2014 (Local Time) from KSYR Reporting Station
Drizzle Drizzle  
Wind Chill: 11°   Ceiling: 6000
Heat Index: 11°   Visibility: 10mi
Dew Point:   Wind: 15mph
Humidity: 61%   Direction: 250°WSW
Pressure: 29.56"   Gusts: NA
Location:  43.09°N, 76.33°W
Report Text: KSYR 260754Z 25013KT 10SM -DZ SCT040 OVC060 11/03 A2956 RMK AO2 DZB35 SLP007 P0000 T01060033 $
Loading
Personal Weather Stations






























Interactive Weather Map
Tropical Storm Tracking
New forecast layout! Learn more

10-Day Weather Forecast

Advertisements
Track Severe Weather on mobile